sensor_id;sensor_type;location;lat;lon;timestamp;P1;durP1;ratioP1;P2;durP2;ratioP2
40717;SDS011;26405;51.850;-2.246;2023-07-08T00:01:19;14.10;;;6.33;;
40717;SDS011;26405;51.850;-2.246;2023-07-08T00:06:13;16.52;;;6.55;;
40717;SDS011;26405;51.850;-2.246;2023-07-08T00:08:38;17.20;;;6.80;;
40717;SDS011;26405;51.850;-2.246;2023-07-08T00:11:10;17.87;;;7.10;;
40717;SDS011;26405;51.850;-2.246;2023-07-08T00:13:36;19.40;;;6.68;;
40717;SDS011;26405;51.850;-2.246;2023-07-08T00:16:01;19.07;;;6.97;;
40717;SDS011;26405;51.850;-2.246;2023-07-08T00:18:26;21.63;;;7.83;;
40717;SDS011;26405;51.850;-2.246;2023-07-08T00:20:52;17.20;;;6.63;;
40717;SDS011;26405;51.850;-2.246;2023-07-08T00:23:17;31.27;;;11.23;;
40717;SDS011;26405;51.850;-2.246;2023-07-08T00:25:46;21.13;;;8.38;;
40717;SDS011;26405;51.850;-2.246;2023-07-08T00:28:14;26.27;;;10.43;;
40717;SDS011;26405;51.850;-2.246;2023-07-08T00:30:39;21.70;;;8.80;;
40717;SDS011;26405;51.850;-2.246;2023-07-08T00:33:05;27.43;;;9.87;;
40717;SDS011;26405;51.850;-2.246;2023-07-08T00:35:43;30.67;;;11.18;;
40717;SDS011;26405;51.850;-2.246;2023-07-08T00:38:25;22.48;;;8.93;;
40717;SDS011;26405;51.850;-2.246;2023-07-08T00:40:52;22.40;;;8.15;;
40717;SDS011;26405;51.850;-2.246;2023-07-08T00:43:23;27.30;;;10.38;;
40717;SDS011;26405;51.850;-2.246;2023-07-08T00:45:53;23.65;;;9.45;;
40717;SDS011;26405;51.850;-2.246;2023-07-08T00:48:23;23.98;;;8.90;;
40717;SDS011;26405;51.850;-2.246;2023-07-08T00:50:49;20.20;;;7.78;;
40717;SDS011;26405;51.850;-2.246;2023-07-08T00:53:24;23.52;;;8.40;;
40717;SDS011;26405;51.850;-2.246;2023-07-08T00:55:51;17.33;;;6.93;;
40717;SDS011;26405;51.850;-2.246;2023-07-08T00:58:17;20.40;;;7.97;;
40717;SDS011;26405;51.850;-2.246;2023-07-08T01:00:44;19.05;;;6.90;;
40717;SDS011;26405;51.850;-2.246;2023-07-08T01:03:09;14.77;;;6.10;;
40717;SDS011;26405;51.850;-2.246;2023-07-08T01:05:35;19.07;;;7.20;;
40717;SDS011;26405;51.850;-2.246;2023-07-08T01:08:03;21.55;;;8.02;;
40717;SDS011;26405;51.850;-2.246;2023-07-08T01:10:33;20.15;;;8.23;;
40717;SDS011;26405;51.850;-2.246;2023-07-08T01:12:59;18.95;;;7.65;;
40717;SDS011;26405;51.850;-2.246;2023-07-08T01:15:26;16.08;;;7.18;;
40717;SDS011;26405;51.850;-2.246;2023-07-08T01:17:55;15.98;;;7.45;;
40717;SDS011;26405;51.850;-2.246;2023-07-08T01:20:20;17.10;;;7.00;;
40717;SDS011;26405;51.850;-2.246;2023-07-08T01:22:45;22.60;;;8.30;;
40717;SDS011;26405;51.850;-2.246;2023-07-08T01:25:11;16.03;;;6.13;;
40717;SDS011;26405;51.850;-2.246;2023-07-08T01:27:39;14.60;;;6.20;;
40717;SDS011;26405;51.850;-2.246;2023-07-08T01:30:05;16.02;;;6.45;;
40717;SDS011;26405;51.850;-2.246;2023-07-08T01:32:31;12.63;;;5.73;;
40717;SDS011;26405;51.850;-2.246;2023-07-08T01:34:59;17.98;;;7.05;;
40717;SDS011;26405;51.850;-2.246;2023-07-08T01:37:29;17.20;;;6.80;;
40717;SDS011;26405;51.850;-2.246;2023-07-08T01:39:54;16.55;;;6.63;;
40717;SDS011;26405;51.850;-2.246;2023-07-08T01:42:20;14.93;;;6.00;;
40717;SDS011;26405;51.850;-2.246;2023-07-08T01:44:46;15.23;;;5.97;;
40717;SDS011;26405;51.850;-2.246;2023-07-08T01:47:13;14.75;;;5.50;;
40717;SDS011;26405;51.850;-2.246;2023-07-08T01:49:40;15.82;;;6.22;;
40717;SDS011;26405;51.850;-2.246;2023-07-08T01:54:31;14.10;;;5.70;;
40717;SDS011;26405;51.850;-2.246;2023-07-08T01:56:57;14.77;;;5.77;;
40717;SDS011;26405;51.850;-2.246;2023-07-08T01:59:22;13.40;;;5.93;;
40717;SDS011;26405;51.850;-2.246;2023-07-08T02:01:48;17.73;;;5.97;;
40717;SDS011;26405;51.850;-2.246;2023-07-08T02:04:15;12.63;;;5.65;;
40717;SDS011;26405;51.850;-2.246;2023-07-08T02:06:40;14.37;;;5.83;;
40717;SDS011;26405;51.850;-2.246;2023-07-08T02:09:05;12.30;;;5.23;;
40717;SDS011;26405;51.850;-2.246;2023-07-08T02:11:31;14.40;;;6.13;;
40717;SDS011;26405;51.850;-2.246;2023-07-08T02:13:56;12.20;;;5.30;;
40717;SDS011;26405;51.850;-2.246;2023-07-08T02:16:22;12.93;;;5.80;;
40717;SDS011;26405;51.850;-2.246;2023-07-08T02:18:47;15.53;;;5.50;;
40717;SDS011;26405;51.850;-2.246;2023-07-08T02:21:12;15.00;;;5.43;;
40717;SDS011;26405;51.850;-2.246;2023-07-08T02:23:37;12.70;;;5.37;;
40717;SDS011;26405;51.850;-2.246;2023-07-08T02:26:03;11.97;;;5.30;;
40717;SDS011;26405;51.850;-2.246;2023-07-08T02:28:28;13.53;;;5.50;;
40717;SDS011;26405;51.850;-2.246;2023-07-08T02:30:54;9.53;;;4.67;;
40717;SDS011;26405;51.850;-2.246;2023-07-08T02:33:19;13.73;;;5.03;;
40717;SDS011;26405;51.850;-2.246;2023-07-08T02:35:44;11.80;;;5.87;;
40717;SDS011;26405;51.850;-2.246;2023-07-08T02:38:10;12.20;;;5.13;;
40717;SDS011;26405;51.850;-2.246;2023-07-08T02:40:35;12.17;;;5.10;;
40717;SDS011;26405;51.850;-2.246;2023-07-08T02:43:01;14.77;;;5.10;;
40717;SDS011;26405;51.850;-2.246;2023-07-08T02:45:26;11.63;;;5.20;;
40717;SDS011;26405;51.850;-2.246;2023-07-08T02:47:51;12.43;;;5.20;;
40717;SDS011;26405;51.850;-2.246;2023-07-08T02:50:17;11.73;;;5.53;;
40717;SDS011;26405;51.850;-2.246;2023-07-08T02:52:43;13.48;;;5.05;;
40717;SDS011;26405;51.850;-2.246;2023-07-08T02:55:09;13.97;;;5.37;;
40717;SDS011;26405;51.850;-2.246;2023-07-08T02:57:34;14.83;;;5.63;;
40717;SDS011;26405;51.850;-2.246;2023-07-08T02:59:59;14.97;;;5.50;;
40717;SDS011;26405;51.850;-2.246;2023-07-08T03:02:25;12.33;;;5.23;;
40717;SDS011;26405;51.850;-2.246;2023-07-08T03:04:51;12.98;;;5.03;;
40717;SDS011;26405;51.850;-2.246;2023-07-08T03:07:19;11.25;;;4.97;;
40717;SDS011;26405;51.850;-2.246;2023-07-08T03:09:44;10.57;;;5.20;;
40717;SDS011;26405;51.850;-2.246;2023-07-08T03:12:10;15.10;;;5.30;;
40717;SDS011;26405;51.850;-2.246;2023-07-08T03:17:01;13.20;;;5.10;;
40717;SDS011;26405;51.850;-2.246;2023-07-08T03:19:26;10.03;;;5.07;;
40717;SDS011;26405;51.850;-2.246;2023-07-08T03:21:52;10.20;;;4.53;;
40717;SDS011;26405;51.850;-2.246;2023-07-08T03:24:17;13.03;;;5.43;;
40717;SDS011;26405;51.850;-2.246;2023-07-08T03:26:43;11.40;;;4.80;;
40717;SDS011;26405;51.850;-2.246;2023-07-08T03:29:10;11.13;;;5.10;;
40717;SDS011;26405;51.850;-2.246;2023-07-08T03:31:38;22.35;;;5.35;;
40717;SDS011;26405;51.850;-2.246;2023-07-08T03:34:03;10.13;;;4.67;;
40717;SDS011;26405;51.850;-2.246;2023-07-08T03:36:29;12.63;;;5.10;;
40717;SDS011;26405;51.850;-2.246;2023-07-08T03:38:56;16.63;;;5.67;;
40717;SDS011;26405;51.850;-2.246;2023-07-08T03:41:22;13.93;;;5.43;;
40717;SDS011;26405;51.850;-2.246;2023-07-08T03:43:47;16.02;;;5.28;;
40717;SDS011;26405;51.850;-2.246;2023-07-08T03:46:14;11.77;;;5.13;;
40717;SDS011;26405;51.850;-2.246;2023-07-08T03:48:40;13.57;;;5.43;;
40717;SDS011;26405;51.850;-2.246;2023-07-08T03:51:08;12.37;;;4.73;;
40717;SDS011;26405;51.850;-2.246;2023-07-08T03:53:34;18.83;;;5.93;;
40717;SDS011;26405;51.850;-2.246;2023-07-08T03:56:00;13.57;;;5.03;;
40717;SDS011;26405;51.850;-2.246;2023-07-08T03:58:25;13.93;;;5.03;;
40717;SDS011;26405;51.850;-2.246;2023-07-08T04:00:50;11.63;;;5.30;;
40717;SDS011;26405;51.850;-2.246;2023-07-08T04:03:16;13.83;;;5.50;;
40717;SDS011;26405;51.850;-2.246;2023-07-08T04:05:41;14.00;;;5.30;;
40717;SDS011;26405;51.850;-2.246;2023-07-08T04:08:06;18.97;;;5.97;;
40717;SDS011;26405;51.850;-2.246;2023-07-08T04:10:32;12.37;;;5.63;;
40717;SDS011;26405;51.850;-2.246;2023-07-08T04:12:57;11.47;;;4.97;;
40717;SDS011;26405;51.850;-2.246;2023-07-08T04:15:22;28.70;;;5.40;;
40717;SDS011;26405;51.850;-2.246;2023-07-08T04:17:53;12.82;;;5.55;;
40717;SDS011;26405;51.850;-2.246;2023-07-08T04:20:20;10.75;;;4.82;;
40717;SDS011;26405;51.850;-2.246;2023-07-08T04:22:46;10.10;;;5.00;;
40717;SDS011;26405;51.850;-2.246;2023-07-08T04:25:11;11.63;;;5.07;;
40717;SDS011;26405;51.850;-2.246;2023-07-08T04:27:37;15.05;;;6.07;;
40717;SDS011;26405;51.850;-2.246;2023-07-08T04:30:03;12.07;;;5.50;;
40717;SDS011;26405;51.850;-2.246;2023-07-08T04:32:29;13.57;;;5.53;;
40717;SDS011;26405;51.850;-2.246;2023-07-08T04:34:54;14.20;;;5.40;;
40717;SDS011;26405;51.850;-2.246;2023-07-08T04:37:19;12.83;;;5.43;;
40717;SDS011;26405;51.850;-2.246;2023-07-08T04:39:45;14.93;;;5.47;;
40717;SDS011;26405;51.850;-2.246;2023-07-08T04:42:11;13.67;;;5.87;;
40717;SDS011;26405;51.850;-2.246;2023-07-08T04:44:38;14.82;;;5.07;;
40717;SDS011;26405;51.850;-2.246;2023-07-08T04:47:03;15.63;;;5.50;;
40717;SDS011;26405;51.850;-2.246;2023-07-08T04:49:28;12.73;;;5.20;;
40717;SDS011;26405;51.850;-2.246;2023-07-08T04:51:57;10.98;;;5.00;;
40717;SDS011;26405;51.850;-2.246;2023-07-08T04:56:48;15.60;;;4.90;;
40717;SDS011;26405;51.850;-2.246;2023-07-08T04:59:15;12.00;;;4.93;;
40717;SDS011;26405;51.850;-2.246;2023-07-08T05:01:40;14.77;;;5.00;;
40717;SDS011;26405;51.850;-2.246;2023-07-08T05:04:06;12.20;;;4.80;;
40717;SDS011;26405;51.850;-2.246;2023-07-08T05:06:32;14.93;;;5.57;;
40717;SDS011;26405;51.850;-2.246;2023-07-08T05:08:59;11.63;;;4.85;;
40717;SDS011;26405;51.850;-2.246;2023-07-08T05:11:24;12.43;;;5.38;;
40717;SDS011;26405;51.850;-2.246;2023-07-08T05:13:50;14.87;;;5.33;;
40717;SDS011;26405;51.850;-2.246;2023-07-08T05:16:15;12.43;;;5.33;;
40717;SDS011;26405;51.850;-2.246;2023-07-08T05:18:40;13.27;;;4.80;;
40717;SDS011;26405;51.850;-2.246;2023-07-08T05:21:06;13.00;;;5.40;;
40717;SDS011;26405;51.850;-2.246;2023-07-08T05:23:32;13.68;;;5.07;;
40717;SDS011;26405;51.850;-2.246;2023-07-08T05:26:00;12.43;;;4.80;;
40717;SDS011;26405;51.850;-2.246;2023-07-08T05:28:26;12.45;;;5.55;;
40717;SDS011;26405;51.850;-2.246;2023-07-08T05:30:52;12.47;;;5.43;;
40717;SDS011;26405;51.850;-2.246;2023-07-08T05:35:44;10.33;;;4.80;;
40717;SDS011;26405;51.850;-2.246;2023-07-08T05:40:35;14.43;;;4.80;;
40717;SDS011;26405;51.850;-2.246;2023-07-08T05:43:00;11.77;;;5.23;;
40717;SDS011;26405;51.850;-2.246;2023-07-08T05:45:25;14.23;;;5.27;;
40717;SDS011;26405;51.850;-2.246;2023-07-08T05:47:51;15.03;;;5.20;;
40717;SDS011;26405;51.850;-2.246;2023-07-08T05:50:16;13.70;;;5.23;;
40717;SDS011;26405;51.850;-2.246;2023-07-08T05:52:41;13.50;;;5.40;;
40717;SDS011;26405;51.850;-2.246;2023-07-08T05:55:06;13.27;;;5.10;;
40717;SDS011;26405;51.850;-2.246;2023-07-08T05:57:32;12.33;;;4.83;;
40717;SDS011;26405;51.850;-2.246;2023-07-08T05:59:57;14.73;;;5.23;;
40717;SDS011;26405;51.850;-2.246;2023-07-08T06:02:22;12.40;;;4.90;;
40717;SDS011;26405;51.850;-2.246;2023-07-08T06:04:50;12.30;;;4.93;;
40717;SDS011;26405;51.850;-2.246;2023-07-08T06:07:15;13.47;;;5.27;;
40717;SDS011;26405;51.850;-2.246;2023-07-08T06:09:42;14.95;;;4.75;;
40717;SDS011;26405;51.850;-2.246;2023-07-08T06:12:07;10.83;;;4.67;;
40717;SDS011;26405;51.850;-2.246;2023-07-08T06:14:32;11.47;;;4.77;;
40717;SDS011;26405;51.850;-2.246;2023-07-08T06:16:58;13.90;;;4.77;;
40717;SDS011;26405;51.850;-2.246;2023-07-08T06:19:23;9.47;;;4.77;;
40717;SDS011;26405;51.850;-2.246;2023-07-08T06:21:48;13.10;;;4.93;;
40717;SDS011;26405;51.850;-2.246;2023-07-08T06:24:14;11.53;;;5.13;;
40717;SDS011;26405;51.850;-2.246;2023-07-08T06:26:39;10.27;;;4.40;;
40717;SDS011;26405;51.850;-2.246;2023-07-08T06:29:04;13.43;;;4.63;;
40717;SDS011;26405;51.850;-2.246;2023-07-08T06:31:33;13.53;;;4.97;;
40717;SDS011;26405;51.850;-2.246;2023-07-08T06:33:59;15.45;;;4.60;;
40717;SDS011;26405;51.850;-2.246;2023-07-08T06:36:24;13.40;;;4.73;;
40717;SDS011;26405;51.850;-2.246;2023-07-08T06:38:49;13.53;;;4.77;;
40717;SDS011;26405;51.850;-2.246;2023-07-08T06:41:14;13.30;;;4.60;;
40717;SDS011;26405;51.850;-2.246;2023-07-08T06:43:40;12.50;;;4.70;;
40717;SDS011;26405;51.850;-2.246;2023-07-08T06:46:05;13.37;;;5.00;;
40717;SDS011;26405;51.850;-2.246;2023-07-08T06:48:31;12.68;;;4.85;;
40717;SDS011;26405;51.850;-2.246;2023-07-08T06:50:57;11.17;;;4.90;;
40717;SDS011;26405;51.850;-2.246;2023-07-08T06:53:22;10.83;;;4.13;;
40717;SDS011;26405;51.850;-2.246;2023-07-08T06:55:49;10.27;;;4.20;;
40717;SDS011;26405;51.850;-2.246;2023-07-08T06:58:14;14.30;;;4.15;;
40717;SDS011;26405;51.850;-2.246;2023-07-08T07:00:43;8.10;;;4.10;;
40717;SDS011;26405;51.850;-2.246;2023-07-08T07:03:09;11.68;;;4.13;;
40717;SDS011;26405;51.850;-2.246;2023-07-08T07:05:34;9.77;;;3.60;;
40717;SDS011;26405;51.850;-2.246;2023-07-08T07:07:59;9.57;;;3.90;;
40717;SDS011;26405;51.850;-2.246;2023-07-08T07:10:24;9.97;;;3.80;;
40717;SDS011;26405;51.850;-2.246;2023-07-08T07:12:50;8.77;;;3.43;;
40717;SDS011;26405;51.850;-2.246;2023-07-08T07:15:15;9.93;;;4.07;;
40717;SDS011;26405;51.850;-2.246;2023-07-08T07:17:40;13.27;;;3.93;;
40717;SDS011;26405;51.850;-2.246;2023-07-08T07:20:06;7.37;;;3.60;;
40717;SDS011;26405;51.850;-2.246;2023-07-08T07:22:32;9.83;;;4.20;;
40717;SDS011;26405;51.850;-2.246;2023-07-08T07:24:57;8.73;;;4.13;;
40717;SDS011;26405;51.850;-2.246;2023-07-08T07:27:23;8.93;;;3.80;;
40717;SDS011;26405;51.850;-2.246;2023-07-08T07:29:49;8.20;;;3.70;;
40717;SDS011;26405;51.850;-2.246;2023-07-08T07:32:17;9.15;;;4.00;;
40717;SDS011;26405;51.850;-2.246;2023-07-08T07:34:42;9.10;;;4.10;;
40717;SDS011;26405;51.850;-2.246;2023-07-08T07:37:14;9.90;;;3.88;;
40717;SDS011;26405;51.850;-2.246;2023-07-08T07:39:40;9.98;;;3.88;;
40717;SDS011;26405;51.850;-2.246;2023-07-08T07:42:06;11.98;;;4.43;;
40717;SDS011;26405;51.850;-2.246;2023-07-08T07:44:32;11.07;;;3.70;;
40717;SDS011;26405;51.850;-2.246;2023-07-08T07:46:57;14.30;;;4.07;;
40717;SDS011;26405;51.850;-2.246;2023-07-08T07:49:22;12.93;;;3.93;;
40717;SDS011;26405;51.850;-2.246;2023-07-08T07:51:48;9.43;;;3.90;;
40717;SDS011;26405;51.850;-2.246;2023-07-08T07:54:13;7.93;;;3.83;;
40717;SDS011;26405;51.850;-2.246;2023-07-08T07:56:38;10.90;;;4.13;;
40717;SDS011;26405;51.850;-2.246;2023-07-08T07:59:04;11.63;;;3.33;;
40717;SDS011;26405;51.850;-2.246;2023-07-08T08:01:29;10.77;;;3.60;;
40717;SDS011;26405;51.850;-2.246;2023-07-08T08:03:54;13.10;;;3.93;;
40717;SDS011;26405;51.850;-2.246;2023-07-08T08:06:20;12.20;;;4.03;;
40717;SDS011;26405;51.850;-2.246;2023-07-08T08:08:45;13.00;;;4.10;;
40717;SDS011;26405;51.850;-2.246;2023-07-08T08:11:11;8.97;;;3.63;;
40717;SDS011;26405;51.850;-2.246;2023-07-08T08:13:36;13.57;;;4.50;;
40717;SDS011;26405;51.850;-2.246;2023-07-08T08:16:01;12.60;;;4.10;;
40717;SDS011;26405;51.850;-2.246;2023-07-08T08:18:27;8.77;;;3.57;;
40717;SDS011;26405;51.850;-2.246;2023-07-08T08:20:52;8.67;;;3.50;;
40717;SDS011;26405;51.850;-2.246;2023-07-08T08:23:18;11.70;;;4.13;;
40717;SDS011;26405;51.850;-2.246;2023-07-08T08:25:43;9.93;;;3.73;;
40717;SDS011;26405;51.850;-2.246;2023-07-08T08:28:08;12.43;;;4.03;;
40717;SDS011;26405;51.850;-2.246;2023-07-08T08:30:36;10.38;;;4.20;;
40717;SDS011;26405;51.850;-2.246;2023-07-08T08:33:01;16.27;;;4.80;;
40717;SDS011;26405;51.850;-2.246;2023-07-08T08:35:27;12.43;;;4.22;;
40717;SDS011;26405;51.850;-2.246;2023-07-08T08:37:53;10.63;;;3.57;;
40717;SDS011;26405;51.850;-2.246;2023-07-08T08:40:20;9.50;;;3.63;;
40717;SDS011;26405;51.850;-2.246;2023-07-08T08:42:50;11.30;;;3.97;;
40717;SDS011;26405;51.850;-2.246;2023-07-08T08:45:18;10.35;;;3.65;;
40717;SDS011;26405;51.850;-2.246;2023-07-08T08:47:46;13.95;;;4.38;;
40717;SDS011;26405;51.850;-2.246;2023-07-08T08:52:52;12.18;;;3.55;;
40717;SDS011;26405;51.850;-2.246;2023-07-08T08:55:20;10.80;;;4.10;;
40717;SDS011;26405;51.850;-2.246;2023-07-08T09:00:24;11.63;;;3.70;;
40717;SDS011;26405;51.850;-2.246;2023-07-08T09:02:56;9.93;;;3.80;;
40717;SDS011;26405;51.850;-2.246;2023-07-08T09:05:22;11.45;;;4.00;;
40717;SDS011;26405;51.850;-2.246;2023-07-08T09:12:50;9.30;;;3.43;;
40717;SDS011;26405;51.850;-2.246;2023-07-08T09:15:18;10.90;;;4.00;;
40717;SDS011;26405;51.850;-2.246;2023-07-08T09:17:44;11.63;;;3.75;;
40717;SDS011;26405;51.850;-2.246;2023-07-08T09:20:16;10.27;;;3.87;;
40717;SDS011;26405;51.850;-2.246;2023-07-08T09:22:48;10.27;;;3.83;;
40717;SDS011;26405;51.850;-2.246;2023-07-08T09:27:41;8.27;;;3.60;;
40717;SDS011;26405;51.850;-2.246;2023-07-08T09:30:09;11.67;;;4.03;;
40717;SDS011;26405;51.850;-2.246;2023-07-08T09:32:38;12.38;;;3.80;;
40717;SDS011;26405;51.850;-2.246;2023-07-08T09:35:05;10.47;;;3.60;;
40717;SDS011;26405;51.850;-2.246;2023-07-08T09:37:32;9.38;;;3.80;;
40717;SDS011;26405;51.850;-2.246;2023-07-08T09:39:58;12.20;;;4.18;;
40717;SDS011;26405;51.850;-2.246;2023-07-08T09:42:25;13.10;;;4.30;;
40717;SDS011;26405;51.850;-2.246;2023-07-08T09:44:56;7.70;;;3.63;;
40717;SDS011;26405;51.850;-2.246;2023-07-08T09:47:26;15.75;;;4.18;;
40717;SDS011;26405;51.850;-2.246;2023-07-08T09:49:56;12.52;;;4.18;;
40717;SDS011;26405;51.850;-2.246;2023-07-08T09:52:21;9.68;;;3.75;;
40717;SDS011;26405;51.850;-2.246;2023-07-08T09:54:47;10.03;;;3.83;;
40717;SDS011;26405;51.850;-2.246;2023-07-08T09:57:26;11.63;;;3.73;;
40717;SDS011;26405;51.850;-2.246;2023-07-08T09:59:52;12.63;;;3.90;;
40717;SDS011;26405;51.850;-2.246;2023-07-08T10:02:24;8.95;;;3.70;;
40717;SDS011;26405;51.850;-2.246;2023-07-08T10:04:54;10.10;;;3.45;;
40717;SDS011;26405;51.850;-2.246;2023-07-08T10:07:20;11.10;;;4.22;;
40717;SDS011;26405;51.850;-2.246;2023-07-08T10:09:49;7.17;;;3.63;;
40717;SDS011;26405;51.850;-2.246;2023-07-08T10:12:15;9.25;;;3.80;;
40717;SDS011;26405;51.850;-2.246;2023-07-08T10:14:51;12.50;;;3.77;;
40717;SDS011;26405;51.850;-2.246;2023-07-08T10:17:18;13.25;;;4.30;;
40717;SDS011;26405;51.850;-2.246;2023-07-08T10:19:44;12.07;;;4.20;;
40717;SDS011;26405;51.850;-2.246;2023-07-08T10:22:16;11.97;;;4.33;;
40717;SDS011;26405;51.850;-2.246;2023-07-08T10:24:51;10.20;;;3.92;;
40717;SDS011;26405;51.850;-2.246;2023-07-08T10:45:25;13.52;;;4.25;;
40717;SDS011;26405;51.850;-2.246;2023-07-08T10:48:08;11.13;;;4.13;;
40717;SDS011;26405;51.850;-2.246;2023-07-08T10:55:59;9.10;;;3.95;;
40717;SDS011;26405;51.850;-2.246;2023-07-08T11:06:19;12.15;;;4.13;;
40717;SDS011;26405;51.850;-2.246;2023-07-08T11:08:56;9.30;;;3.88;;
40717;SDS011;26405;51.850;-2.246;2023-07-08T11:11:30;8.35;;;4.00;;
40717;SDS011;26405;51.850;-2.246;2023-07-08T11:14:10;9.65;;;4.00;;
40717;SDS011;26405;51.850;-2.246;2023-07-08T11:16:39;10.52;;;3.90;;
40717;SDS011;26405;51.850;-2.246;2023-07-08T11:21:39;11.23;;;3.67;;
40717;SDS011;26405;51.850;-2.246;2023-07-08T11:27:05;10.93;;;4.37;;
40717;SDS011;26405;51.850;-2.246;2023-07-08T11:29:24;7.90;;;3.38;;
40717;SDS011;26405;51.850;-2.246;2023-07-08T11:31:50;9.77;;;4.07;;
40717;SDS011;26405;51.850;-2.246;2023-07-08T11:34:17;9.70;;;4.15;;
40717;SDS011;26405;51.850;-2.246;2023-07-08T11:36:43;8.30;;;3.53;;
40717;SDS011;26405;51.850;-2.246;2023-07-08T11:41:53;8.23;;;3.75;;
40717;SDS011;26405;51.850;-2.246;2023-07-08T11:44:28;9.30;;;4.18;;
40717;SDS011;26405;51.850;-2.246;2023-07-08T11:46:54;10.33;;;4.10;;
40717;SDS011;26405;51.850;-2.246;2023-07-08T11:49:19;9.43;;;3.85;;
40717;SDS011;26405;51.850;-2.246;2023-07-08T11:51:45;9.97;;;4.33;;
40717;SDS011;26405;51.850;-2.246;2023-07-08T11:56:47;8.63;;;3.73;;
40717;SDS011;26405;51.850;-2.246;2023-07-08T11:59:16;12.05;;;4.05;;
40717;SDS011;26405;51.850;-2.246;2023-07-08T12:04:33;8.25;;;3.90;;
40717;SDS011;26405;51.850;-2.246;2023-07-08T12:07:17;12.05;;;4.30;;
40717;SDS011;26405;51.850;-2.246;2023-07-08T12:10:04;11.43;;;3.95;;
40717;SDS011;26405;51.850;-2.246;2023-07-08T12:12:33;11.82;;;4.18;;
40717;SDS011;26405;51.850;-2.246;2023-07-08T12:17:34;10.32;;;3.88;;
40717;SDS011;26405;51.850;-2.246;2023-07-08T12:20:00;10.13;;;3.85;;
40717;SDS011;26405;51.850;-2.246;2023-07-08T12:22:28;9.15;;;3.90;;
40717;SDS011;26405;51.850;-2.246;2023-07-08T12:24:53;11.53;;;3.90;;
40717;SDS011;26405;51.850;-2.246;2023-07-08T12:27:21;10.43;;;4.10;;
40717;SDS011;26405;51.850;-2.246;2023-07-08T12:29:46;8.52;;;3.67;;
40717;SDS011;26405;51.850;-2.246;2023-07-08T12:32:12;11.27;;;4.00;;
40717;SDS011;26405;51.850;-2.246;2023-07-08T12:34:38;13.82;;;4.18;;
40717;SDS011;26405;51.850;-2.246;2023-07-08T12:37:04;11.90;;;4.40;;
40717;SDS011;26405;51.850;-2.246;2023-07-08T12:39:29;9.05;;;3.75;;
40717;SDS011;26405;51.850;-2.246;2023-07-08T12:41:58;10.63;;;4.13;;
40717;SDS011;26405;51.850;-2.246;2023-07-08T12:44:23;9.17;;;3.90;;
40717;SDS011;26405;51.850;-2.246;2023-07-08T12:46:49;11.30;;;3.67;;
40717;SDS011;26405;51.850;-2.246;2023-07-08T12:49:17;10.02;;;4.15;;
40717;SDS011;26405;51.850;-2.246;2023-07-08T12:51:45;8.02;;;3.80;;
40717;SDS011;26405;51.850;-2.246;2023-07-08T12:54:11;8.10;;;3.57;;
40717;SDS011;26405;51.850;-2.246;2023-07-08T12:56:36;10.85;;;3.65;;
40717;SDS011;26405;51.850;-2.246;2023-07-08T12:59:02;12.20;;;4.30;;
40717;SDS011;26405;51.850;-2.246;2023-07-08T13:01:29;14.25;;;4.47;;
40717;SDS011;26405;51.850;-2.246;2023-07-08T13:03:56;9.63;;;4.18;;
40717;SDS011;26405;51.850;-2.246;2023-07-08T13:06:25;12.55;;;3.97;;
40717;SDS011;26405;51.850;-2.246;2023-07-08T13:08:52;12.73;;;4.60;;
40717;SDS011;26405;51.850;-2.246;2023-07-08T13:11:18;14.17;;;4.40;;
40717;SDS011;26405;51.850;-2.246;2023-07-08T13:13:48;10.93;;;4.30;;
40717;SDS011;26405;51.850;-2.246;2023-07-08T13:16:14;12.00;;;3.90;;
40717;SDS011;26405;51.850;-2.246;2023-07-08T13:18:40;10.77;;;4.23;;
40717;SDS011;26405;51.850;-2.246;2023-07-08T13:21:07;12.45;;;4.30;;
40717;SDS011;26405;51.850;-2.246;2023-07-08T13:23:33;11.50;;;4.43;;
40717;SDS011;26405;51.850;-2.246;2023-07-08T13:25:59;8.13;;;3.97;;
40717;SDS011;26405;51.850;-2.246;2023-07-08T13:30:58;12.20;;;4.10;;
40717;SDS011;26405;51.850;-2.246;2023-07-08T13:33:28;10.23;;;3.95;;
40717;SDS011;26405;51.850;-2.246;2023-07-08T13:35:53;9.95;;;4.30;;
40717;SDS011;26405;51.850;-2.246;2023-07-08T13:38:21;13.40;;;4.35;;
40717;SDS011;26405;51.850;-2.246;2023-07-08T13:40:49;10.30;;;4.00;;
40717;SDS011;26405;51.850;-2.246;2023-07-08T13:43:14;8.95;;;3.92;;
40717;SDS011;26405;51.850;-2.246;2023-07-08T13:45:43;10.37;;;4.20;;
40717;SDS011;26405;51.850;-2.246;2023-07-08T13:48:14;11.30;;;4.13;;
40717;SDS011;26405;51.850;-2.246;2023-07-08T13:50:47;11.05;;;3.83;;
40717;SDS011;26405;51.850;-2.246;2023-07-08T13:53:24;13.15;;;4.25;;
40717;SDS011;26405;51.850;-2.246;2023-07-08T13:55:57;11.98;;;4.13;;
40717;SDS011;26405;51.850;-2.246;2023-07-08T13:58:23;10.73;;;4.05;;
40717;SDS011;26405;51.850;-2.246;2023-07-08T14:00:51;11.52;;;4.40;;
40717;SDS011;26405;51.850;-2.246;2023-07-08T14:03:16;12.07;;;4.33;;
40717;SDS011;26405;51.850;-2.246;2023-07-08T14:08:10;15.18;;;3.90;;
40717;SDS011;26405;51.850;-2.246;2023-07-08T14:10:37;11.77;;;3.75;;
40717;SDS011;26405;51.850;-2.246;2023-07-08T14:13:02;10.30;;;3.90;;
40717;SDS011;26405;51.850;-2.246;2023-07-08T14:15:29;10.88;;;3.95;;
40717;SDS011;26405;51.850;-2.246;2023-07-08T14:17:56;11.82;;;3.90;;
40717;SDS011;26405;51.850;-2.246;2023-07-08T14:20:21;9.07;;;3.72;;
40717;SDS011;26405;51.850;-2.246;2023-07-08T14:22:48;7.95;;;3.60;;
40717;SDS011;26405;51.850;-2.246;2023-07-08T14:25:16;13.60;;;4.30;;
40717;SDS011;26405;51.850;-2.246;2023-07-08T14:27:41;9.77;;;3.97;;
40717;SDS011;26405;51.850;-2.246;2023-07-08T14:30:08;11.47;;;3.97;;
40717;SDS011;26405;51.850;-2.246;2023-07-08T14:32:34;10.70;;;3.78;;
40717;SDS011;26405;51.850;-2.246;2023-07-08T14:35:02;11.03;;;3.60;;
40717;SDS011;26405;51.850;-2.246;2023-07-08T14:37:33;15.02;;;4.55;;
40717;SDS011;26405;51.850;-2.246;2023-07-08T14:39:58;13.00;;;3.83;;
40717;SDS011;26405;51.850;-2.246;2023-07-08T14:42:24;10.90;;;3.67;;
40717;SDS011;26405;51.850;-2.246;2023-07-08T14:44:49;12.67;;;3.73;;
40717;SDS011;26405;51.850;-2.246;2023-07-08T14:47:16;11.60;;;3.77;;
40717;SDS011;26405;51.850;-2.246;2023-07-08T14:49:42;10.00;;;3.60;;
40717;SDS011;26405;51.850;-2.246;2023-07-08T14:52:08;8.80;;;3.40;;
40717;SDS011;26405;51.850;-2.246;2023-07-08T14:54:34;10.90;;;3.93;;
40717;SDS011;26405;51.850;-2.246;2023-07-08T14:56:59;9.73;;;3.60;;
40717;SDS011;26405;51.850;-2.246;2023-07-08T14:59:25;12.73;;;3.67;;
40717;SDS011;26405;51.850;-2.246;2023-07-08T15:01:52;11.35;;;3.58;;
40717;SDS011;26405;51.850;-2.246;2023-07-08T15:04:18;9.80;;;3.55;;
40717;SDS011;26405;51.850;-2.246;2023-07-08T15:06:44;12.35;;;4.00;;
40717;SDS011;26405;51.850;-2.246;2023-07-08T15:11:38;9.15;;;3.75;;
40717;SDS011;26405;51.850;-2.246;2023-07-08T15:14:04;11.23;;;3.78;;
40717;SDS011;26405;51.850;-2.246;2023-07-08T15:16:30;7.65;;;3.70;;
40717;SDS011;26405;51.850;-2.246;2023-07-08T15:18:56;11.23;;;3.67;;
40717;SDS011;26405;51.850;-2.246;2023-07-08T15:21:22;7.90;;;3.22;;
40717;SDS011;26405;51.850;-2.246;2023-07-08T15:23:47;8.03;;;3.17;;
40717;SDS011;26405;51.850;-2.246;2023-07-08T15:26:13;7.70;;;3.40;;
40717;SDS011;26405;51.850;-2.246;2023-07-08T15:28:42;7.53;;;3.30;;
40717;SDS011;26405;51.850;-2.246;2023-07-08T15:31:13;9.93;;;3.60;;
40717;SDS011;26405;51.850;-2.246;2023-07-08T15:33:38;10.23;;;3.83;;
40717;SDS011;26405;51.850;-2.246;2023-07-08T15:36:04;10.17;;;3.43;;
40717;SDS011;26405;51.850;-2.246;2023-07-08T15:38:29;14.00;;;3.50;;
40717;SDS011;26405;51.850;-2.246;2023-07-08T15:40:54;7.90;;;3.43;;
40717;SDS011;26405;51.850;-2.246;2023-07-08T15:43:20;11.13;;;3.70;;